Time;durP1;ratioP1;P1;durP2;ratioP2;P2;SDS_P1;SDS_P2;PMS_P1;PMS_P2;Temp;Humidity;BMP_temperature;BMP_pressure;BME280_temperature;BME280_humidity;BME280_pressure;Samples;Min_cycle;Max_cycle;Signal;HPM_P1;HPM_P2
2021/06/01 00:00:25;;;;;;;32.03;17.40;;;;;;;15.68;75.98;98946.53;6154626;23;20488;-92
2021/06/01 00:02:51;;;;;;;34.35;18.70;;;;;;;15.71;75.94;98955.13;6178746;23;20054;-93
2021/06/01 00:05:17;;;;;;;35.00;18.17;;;;;;;15.73;75.56;98958.50;6154505;23;20029;-90
2021/06/01 00:07:43;;;;;;;35.15;18.88;;;;;;;15.68;75.96;98949.22;6154177;23;20121;-91
2021/06/01 00:10:10;;;;;;;35.88;19.33;;;;;;;15.57;76.51;98966.53;6131162;23;20072;-90
2021/06/01 00:12:37;;;;;;;38.95;20.42;;;;;;;15.51;76.70;98959.09;6180333;23;20017;-91
2021/06/01 00:15:05;;;;;;;36.90;19.00;;;;;;;15.52;76.65;98953.53;6105716;23;20362;-93
2021/06/01 00:17:31;;;;;;;38.40;20.90;;;;;;;15.56;76.75;98967.50;6179610;23;20076;-92
2021/06/01 00:19:57;;;;;;;42.00;20.02;;;;;;;15.55;76.84;98971.22;6154977;23;20740;-92
2021/06/01 00:22:23;;;;;;;35.47;19.20;;;;;;;15.60;76.53;98968.88;6156696;23;20033;-93
2021/06/01 00:24:49;;;;;;;37.25;20.67;;;;;;;15.63;76.46;98978.47;6155196;23;20052;-93
2021/06/01 00:27:15;;;;;;;36.13;20.30;;;;;;;15.74;76.47;98986.28;6180541;23;20045;-90
2021/06/01 00:29:40;;;;;;;30.88;18.98;;;;;;;15.69;76.22;98989.47;6156466;23;20053;-90
2021/06/01 00:32:07;;;;;;;37.35;20.98;;;;;;;15.81;76.22;98986.47;6160799;23;20344;-92
2021/06/01 00:34:33;;;;;;;36.28;20.48;;;;;;;16.02;75.86;98994.94;6179924;23;20034;-95
2021/06/01 00:36:59;;;;;;;36.25;19.42;;;;;;;16.10;74.71;98976.09;6154738;23;20076;-94
2021/06/01 00:39:25;;;;;;;35.78;18.40;;;;;;;16.23;74.26;98987.22;6156737;23;20390;-92
2021/06/01 00:41:51;;;;;;;32.83;19.55;;;;;;;16.13;74.29;98996.47;6155273;23;20017;-93
2021/06/01 00:44:17;;;;;;;40.58;19.25;;;;;;;16.20;74.13;99002.88;6155738;23;20021;-93
2021/06/01 00:46:42;;;;;;;33.55;17.00;;;;;;;16.13;74.27;99013.47;6182018;23;20084;-93
2021/06/01 00:49:08;;;;;;;34.50;18.70;;;;;;;16.09;73.81;98993.25;6182717;23;20025;-91
2021/06/01 00:51:34;;;;;;;35.22;19.40;;;;;;;16.15;73.70;98987.22;6156530;23;20023;-92
2021/06/01 00:54:01;;;;;;;37.25;19.85;;;;;;;16.11;73.72;98999.34;6156820;23;20127;-90
2021/06/01 00:56:27;;;;;;;36.53;18.90;;;;;;;16.11;74.25;99010.13;6156350;23;20028;-90
2021/06/01 00:58:53;;;;;;;40.85;19.30;;;;;;;16.14;73.87;98995.47;6156752;23;20029;-91
2021/06/01 01:01:19;;;;;;;37.92;19.95;;;;;;;16.11;73.73;98999.34;6158417;23;20408;-91
2021/06/01 01:03:45;;;;;;;38.20;19.70;;;;;;;16.11;73.50;98995.81;6156708;23;20021;-92
2021/06/01 01:06:42;;;;;;;41.22;19.52;;;;;;;16.11;73.44;99006.59;6156667;23;20092;-90
2021/06/01 01:09:14;;;;;;;34.67;18.98;;;;;;;16.08;72.73;98999.66;6156411;23;20013;-90
2021/06/01 01:11:55;;;;;;;33.33;19.13;;;;;;;16.12;72.65;99003.72;6156743;23;20079;-90
2021/06/01 01:14:29;;;;;;;33.70;19.08;;;;;;;16.07;72.20;98997.16;6181868;23;20014;-89
2021/06/01 01:17:16;;;;;;;40.35;18.92;;;;;;;16.02;72.39;99005.72;6181921;23;20014;-92
2021/06/01 01:20:04;;;;;;;33.42;19.10;;;;;;;16.00;72.25;98991.56;6156404;23;20033;-90
2021/06/01 01:22:31;;;;;;;43.97;20.10;;;;;;;16.09;71.94;98982.47;6156915;23;20451;-90
2021/06/01 01:25:18;;;;;;;37.95;19.33;;;;;;;15.98;72.29;98994.44;6132375;23;20105;-90
2021/06/01 01:27:52;;;;;;;36.85;19.95;;;;;;;15.79;72.90;98978.53;6158015;23;20454;-91
2021/06/01 01:30:18;;;;;;;36.78;19.73;;;;;;;15.91;72.87;98987.16;6133147;23;20052;-90
2021/06/01 01:33:00;;;;;;;38.65;19.40;;;;;;;15.87;73.02;98978.59;6157970;23;20052;-90
2021/06/01 01:35:27;;;;;;;38.38;19.67;;;;;;;15.94;72.62;98981.44;6162293;23;20018;-89
2021/06/01 01:37:53;;;;;;;44.63;22.55;;;;;;;15.83;73.25;98973.66;6143966;23;20104;-87
2021/06/01 01:40:22;;;;;;;44.58;24.02;;;;;;;15.82;73.86;98969.28;6140390;23;20045;-91
2021/06/01 01:42:51;;;;;;;43.05;23.48;;;;;;;15.76;74.58;98974.34;6170797;23;20014;-88
2021/06/01 01:45:33;;;;;;;43.70;24.13;;;;;;;15.67;75.29;98975.31;6155725;23;20069;-87
2021/06/01 01:50:45;;;;;;;47.78;22.02;;;;;;;15.72;75.23;98973.00;6157163;23;20021;-89
2021/06/01 01:53:13;;;;;;;39.15;22.77;;;;;;;15.73;75.29;98984.63;6156836;23;20017;-91
2021/06/01 01:55:39;;;;;;;41.97;23.20;;;;;;;15.82;75.40;98985.47;6156104;23;20021;-92
2021/06/01 01:58:05;;;;;;;40.10;21.65;;;;;;;15.94;75.14;98982.28;6156815;23;20017;-90
2021/06/01 02:00:31;;;;;;;50.95;22.50;;;;;;;16.09;74.36;98963.59;6131947;23;20040;-91
2021/06/01 02:02:57;;;;;;;41.88;22.83;;;;;;;16.18;74.05;98978.78;6160841;23;20024;-92
2021/06/01 02:05:23;;;;;;;53.92;24.30;;;;;;;16.19;74.02;98966.97;6163760;23;20061;-89
2021/06/01 02:07:49;;;;;;;49.55;23.70;;;;;;;16.31;73.96;98980.13;6156515;23;20025;-86
2021/06/01 02:10:15;;;;;;;44.97;23.83;;;;;;;16.48;73.38;98977.28;6203479;23;20032;-89
2021/06/01 02:12:41;;;;;;;41.47;23.15;;;;;;;16.65;72.44;98991.59;6187947;23;20070;-91
2021/06/01 02:15:08;;;;;;;45.78;22.90;;;;;;;16.79;72.14;98981.16;6160410;23;20022;-93
2021/06/01 02:17:34;;;;;;;43.90;23.13;;;;;;;17.08;71.34;98991.41;6157450;23;20017;-91
2021/06/01 02:20:00;;;;;;;45.47;22.35;;;;;;;17.31;70.71;98975.28;6181209;23;20032;-90
2021/06/01 02:25:15;;;;;;;43.50;23.17;;;;;;;17.30;70.31;98973.56;6136478;23;20046;-89
2021/06/01 02:28:26;;;;;;;45.47;22.42;;;;;;;17.55;69.56;98972.44;6159922;23;20249;-90
2021/06/01 02:34:01;;;;;;;39.38;23.65;;;;;;;17.66;68.71;98976.63;6163762;23;20025;-94
2021/06/01 02:36:27;;;;;;;48.45;24.17;;;;;;;17.50;69.45;98987.53;6135403;23;20025;-94
2021/06/01 02:38:55;;;;;;;48.15;25.23;;;;;;;17.64;69.43;98984.91;6138075;23;20014;-90
2021/06/01 02:41:21;;;;;;;49.33;25.70;;;;;;;17.70;69.44;98992.31;6164229;23;20391;-92
2021/06/01 02:43:47;;;;;;;47.40;25.08;;;;;;;17.89;68.85;98987.50;6164234;23;20049;-92
2021/06/01 02:46:15;;;;;;;50.85;25.80;;;;;;;17.89;68.46;98979.41;6161958;23;20092;-91
2021/06/01 02:48:41;;;;;;;49.58;25.92;;;;;;;18.11;68.13;98981.28;6136413;23;20025;-91
2021/06/01 02:51:16;;;;;;;40.75;23.85;;;;;;;18.28;67.34;98994.66;6159018;23;20113;-93
2021/06/01 02:53:50;;;;;;;44.17;24.10;;;;;;;18.44;66.99;98991.84;6116511;23;20082;-88
2021/06/01 02:56:17;;;;;;;45.17;23.92;;;;;;;18.61;67.18;99004.22;6168557;23;20477;-86
2021/06/01 02:58:47;;;;;;;49.25;25.40;;;;;;;18.79;66.05;98998.50;6124207;23;20032;-92
2021/06/01 03:01:14;;;;;;;43.88;24.23;;;;;;;18.90;65.79;98994.50;6170762;23;20031;-88
2021/06/01 03:03:44;;;;;;;44.80;25.10;;;;;;;18.79;64.96;98997.66;6162566;23;20100;-82
2021/06/01 03:06:11;;;;;;;47.10;24.80;;;;;;;18.43;66.34;98998.31;6136009;23;20021;-90
2021/06/01 03:11:32;;;;;;;43.05;23.70;;;;;;;18.31;66.81;99007.84;6198643;22;20028;-88
2021/06/01 03:13:58;;;;;;;44.75;23.55;;;;;;;18.47;66.22;99013.16;6194418;23;20017;-89
2021/06/01 03:16:24;;;;;;;44.22;24.45;;;;;;;18.42;65.97;99004.72;6195516;23;20047;-86
2021/06/01 03:18:50;;;;;;;51.28;27.65;;;;;;;18.19;67.02;99007.44;6141084;23;20017;-91
2021/06/01 03:21:16;;;;;;;52.80;27.83;;;;;;;18.35;66.98;99007.28;6192261;23;20017;-88
2021/06/01 03:23:42;;;;;;;44.70;26.15;;;;;;;18.39;66.15;99005.94;6187204;23;20021;-84
2021/06/01 03:26:11;;;;;;;49.30;25.73;;;;;;;18.28;66.09;99003.66;6192546;23;20040;-95
2021/06/01 03:28:42;;;;;;;53.97;23.13;;;;;;;18.44;66.34;99006.22;6168730;23;20516;-89
2021/06/01 03:31:11;;;;;;;36.25;21.77;;;;;;;18.55;65.99;99002.25;6192123;23;20017;-91
2021/06/01 03:33:37;;;;;;;40.63;22.50;;;;;;;18.63;65.14;99009.47;6170300;23;20051;-93
2021/06/01 03:36:04;;;;;;;42.92;25.33;;;;;;;18.67;65.37;99017.03;6141787;23;20398;-84
2021/06/01 03:38:32;;;;;;;48.17;26.17;;;;;;;18.71;65.01;99017.53;6187060;23;20045;-83
2021/06/01 03:40:58;;;;;;;48.60;24.95;;;;;;;18.72;64.53;99019.22;6114293;23;20025;-83
2021/06/01 03:43:24;;;;;;;57.17;27.45;;;;;;;18.67;64.79;99025.16;6166560;23;20358;-82
2021/06/01 03:45:50;;;;;;;69.07;30.42;;;;;;;18.58;65.30;99025.38;6194317;23;20017;-82
2021/06/01 03:48:16;;;;;;;43.80;28.35;;;;;;;18.43;65.48;99028.06;6174271;23;20016;-84
2021/06/01 03:50:43;;;;;;;36.60;22.67;;;;;;;18.46;65.39;99030.38;6174205;23;20021;-84
2021/06/01 03:53:09;;;;;;;35.40;21.13;;;;;;;18.43;65.10;99019.94;6198275;23;20021;-82
2021/06/01 03:55:34;;;;;;;35.65;20.27;;;;;;;18.50;65.18;99026.28;6186566;23;20453;-83
2021/06/01 03:58:00;;;;;;;41.95;21.08;;;;;;;18.49;64.97;99021.91;6159995;23;20068;-83
2021/06/01 04:00:31;;;;;;;51.75;25.83;;;;;;;18.44;65.39;99010.81;6160037;23;20021;-85
2021/06/01 04:02:57;;;;;;;52.17;26.50;;;;;;;18.37;65.63;99026.06;6137486;23;20025;-83
2021/06/01 04:05:23;;;;;;;52.05;27.77;;;;;;;18.17;66.23;99014.91;6161088;23;20027;-85
2021/06/01 04:07:49;;;;;;;46.13;27.27;;;;;;;18.03;66.88;99018.38;6187463;23;20099;-90
2021/06/01 04:10:15;;;;;;;54.92;28.38;;;;;;;17.95;67.03;99021.97;6112591;23;20048;-85
2021/06/01 04:12:42;;;;;;;55.47;26.90;;;;;;;17.85;67.22;99026.75;6111324;23;20051;-85
2021/06/01 04:15:09;;;;;;;52.40;28.05;;;;;;;17.99;67.38;99034.09;6135750;23;20021;-88
2021/06/01 04:17:34;;;;;;;45.72;26.50;;;;;;;18.06;66.95;99018.00;6137673;23;20023;-86
2021/06/01 04:20:01;;;;;;;46.67;28.02;;;;;;;18.22;66.72;99033.28;6143667;23;20056;-85
2021/06/01 04:22:28;;;;;;;53.13;29.33;;;;;;;18.22;66.79;99022.47;6141180;23;20072;-87
2021/06/01 04:24:54;;;;;;;47.13;28.23;;;;;;;18.26;66.53;99035.44;6138980;23;20036;-86
2021/06/01 04:27:20;;;;;;;47.90;25.98;;;;;;;18.39;66.61;99030.28;6139697;23;20039;-85
2021/06/01 04:29:46;;;;;;;40.33;23.73;;;;;;;18.67;65.88;99035.97;6161306;23;20092;-86
2021/06/01 04:32:23;;;;;;;42.50;26.80;;;;;;;18.73;64.99;99031.75;6185010;23;20100;-90
2021/06/01 04:34:51;;;;;;;47.30;27.05;;;;;;;18.69;65.11;99017.69;6111642;23;20024;-86
2021/06/01 04:37:17;;;;;;;59.70;30.52;;;;;;;18.67;65.23;99027.03;6160860;23;20029;-85
2021/06/01 04:39:43;;;;;;;49.85;27.83;;;;;;;18.73;65.41;99026.34;6143827;23;20027;-85
2021/06/01 04:42:34;;;;;;;54.13;28.38;;;;;;;18.76;65.32;99025.09;6192498;23;20080;-86
2021/06/01 04:45:00;;;;;;;59.33;30.10;;;;;;;18.94;65.19;99014.78;6115514;23;20013;-86
2021/06/01 04:47:26;;;;;;;54.17;29.48;;;;;;;19.13;64.50;99010.69;6112617;23;20021;-86
2021/06/01 04:49:52;;;;;;;56.60;32.45;;;;;;;19.34;64.20;99018.09;6137876;23;20013;-85
2021/06/01 04:52:39;;;;;;;52.88;31.33;;;;;;;19.65;63.25;99009.78;6161502;23;20452;-84
2021/06/01 04:55:05;;;;;;;56.45;31.35;;;;;;;19.79;62.66;99018.94;6136349;23;20021;-87
2021/06/01 04:57:32;;;;;;;49.10;28.92;;;;;;;19.57;62.77;99010.69;6112651;23;20016;-85
2021/06/01 04:59:58;;;;;;;51.47;28.27;;;;;;;19.66;62.56;99011.44;6089528;23;20049;-84
2021/06/01 05:02:24;;;;;;;41.50;24.63;;;;;;;19.88;62.55;99025.91;6187571;23;20024;-85
2021/06/01 05:04:50;;;;;;;42.80;25.08;;;;;;;19.93;61.82;99011.78;6080991;23;20021;-85
2021/06/01 05:07:16;;;;;;;45.00;24.88;;;;;;;19.67;62.32;99015.88;6132791;23;20057;-85
2021/06/01 05:10:00;;;;;;;41.30;26.13;;;;;;;19.54;62.77;99021.91;6112388;23;20528;-87
2021/06/01 05:12:36;;;;;;;55.85;27.92;;;;;;;19.47;63.04;99018.25;6140656;23;20417;-86
2021/06/01 05:15:09;;;;;;;60.35;30.48;;;;;;;19.58;63.48;99020.50;6141051;23;20091;-87
2021/06/01 05:17:36;;;;;;;69.70;34.25;;;;;;;19.55;63.48;99010.03;6140942;23;20024;-88
2021/06/01 05:20:02;;;;;;;58.63;32.97;;;;;;;19.75;62.63;99009.50;6142498;23;20028;-86
2021/06/01 05:22:28;;;;;;;59.40;34.75;;;;;;;19.55;63.25;99031.72;6092418;23;20040;-88
2021/06/01 05:25:03;;;;;;;75.07;36.25;;;;;;;19.73;63.34;99027.81;6137218;23;20021;-89
2021/06/01 05:27:31;;;;;;;67.43;34.63;;;;;;;20.12;62.78;99028.28;6117902;23;20035;-88
2021/06/01 05:30:01;;;;;;;77.18;35.47;;;;;;;20.37;61.42;99031.47;6162256;23;20048;-88
2021/06/01 05:35:28;;;;;;;70.00;35.80;;;;;;;20.66;61.09;99028.84;6149567;23;20107;-87
2021/06/01 05:37:57;;;;;;;62.97;35.00;;;;;;;20.77;60.59;99025.63;6153490;23;20044;-88
2021/06/01 05:40:30;;;;;;;66.43;35.03;;;;;;;20.69;60.90;99025.75;6078213;23;20021;-88
2021/06/01 05:42:56;;;;;;;55.83;33.33;;;;;;;20.63;61.27;99012.94;6144612;23;20385;-88
2021/06/01 05:45:23;;;;;;;60.00;32.80;;;;;;;20.80;61.00;99019.78;6166160;23;20107;-87
2021/06/01 05:47:49;;;;;;;54.92;31.98;;;;;;;20.88;60.41;99025.09;6138992;23;20481;-87
2021/06/01 05:50:16;;;;;;;68.63;33.53;;;;;;;20.68;61.02;99016.75;6141455;23;20028;-88
2021/06/01 05:52:43;;;;;;;85.57;36.65;;;;;;;20.64;61.25;99020.06;6187558;23;20092;-87
2021/06/01 05:55:09;;;;;;;76.63;33.58;;;;;;;20.99;60.80;99019.09;6115996;23;20017;-86
2021/06/01 05:57:36;;;;;;;63.10;35.20;;;;;;;21.55;60.10;99029.94;6105001;23;20021;-87
2021/06/01 06:00:07;;;;;;;61.10;35.17;;;;;;;21.76;58.73;99015.38;6123199;23;20515;-88
2021/06/01 06:02:36;;;;;;;67.72;35.10;;;;;;;22.11;58.63;99022.63;6137512;23;20025;-87
2021/06/01 06:05:05;;;;;;;59.22;34.63;;;;;;;22.39;58.01;99015.19;6138031;23;20017;-88
2021/06/01 06:07:31;;;;;;;78.18;34.58;;;;;;;22.54;56.76;99018.56;6112402;23;20120;-87
2021/06/01 06:09:57;;;;;;;68.20;33.83;;;;;;;22.55;56.79;99009.34;6111784;23;20099;-88
2021/06/01 06:12:23;;;;;;;81.55;34.08;;;;;;;22.12;57.45;99011.56;6161014;23;20029;-87
2021/06/01 06:14:49;;;;;;;63.78;31.65;;;;;;;22.27;57.59;99012.25;6112924;23;20021;-87
2021/06/01 06:18:12;;;;;;;59.90;31.35;;;;;;;22.44;56.67;99004.50;6160791;23;20357;-87
2021/06/01 06:20:38;;;;;;;66.47;28.63;;;;;;;22.43;56.41;98989.22;6047797;23;20510;-87
2021/06/01 06:23:04;;;;;;;69.65;29.55;;;;;;;23.00;56.83;99006.84;6074032;23;20057;-88
2021/06/01 06:25:30;;;;;;;66.47;27.73;;;;;;;23.31;55.12;99015.41;6101839;23;20112;-87
2021/06/01 06:27:56;;;;;;;71.38;27.77;;;;;;;23.38;54.30;98992.53;6139613;23;20402;-87
2021/06/01 06:30:23;;;;;;;64.80;27.00;;;;;;;23.25;54.55;99001.59;6139276;23;20021;-88
2021/06/01 06:32:50;;;;;;;58.25;25.83;;;;;;;23.43;54.56;99006.38;6189243;23;20016;-86
2021/06/01 06:35:19;;;;;;;49.90;24.37;;;;;;;23.82;54.34;99010.03;6113613;23;20017;-88
2021/06/01 06:37:45;;;;;;;60.33;24.65;;;;;;;24.14;53.82;99012.81;6138578;23;20700;-88
2021/06/01 06:40:12;;;;;;;74.93;27.17;;;;;;;24.37;53.22;99004.94;6138867;23;20020;-87
2021/06/01 06:42:38;;;;;;;55.28;25.73;;;;;;;24.43;52.10;98995.03;6193321;23;20095;-87
2021/06/01 06:45:06;;;;;;;78.80;27.42;;;;;;;24.36;52.43;99007.84;6137342;23;20017;-87
2021/06/01 06:50:12;;;;;;;46.70;22.75;;;;;;;24.78;52.57;99011.78;6187257;23;20091;-88
2021/06/01 06:52:40;;;;;;;40.40;22.83;;;;;;;25.12;51.68;99001.41;6151780;23;20025;-88
2021/06/01 06:55:08;;;;;;;50.65;24.85;;;;;;;25.35;50.72;99004.34;6113522;23;20025;-87
2021/06/01 06:57:34;;;;;;;54.95;24.38;;;;;;;25.42;50.85;98991.41;6163518;23;20017;-87
2021/06/01 07:00:01;;;;;;;52.00;22.25;;;;;;;25.71;50.72;99001.84;6116442;23;20021;-88
2021/06/01 07:02:27;;;;;;;40.40;22.50;;;;;;;25.94;50.27;98995.69;6137285;23;20130;-87
2021/06/01 07:04:53;;;;;;;37.15;20.98;;;;;;;26.02;49.17;98998.09;6112429;23;20449;-87
2021/06/01 07:07:22;;;;;;;28.88;20.95;;;;;;;25.88;49.16;99014.72;6148931;23;20021;-89
2021/06/01 07:09:48;;;;;;;;;;;;;;;25.72;49.93;99000.75;6166644;23;20349;-85
2021/06/01 07:12:16;;;;;;;44.92;21.45;;;;;;;25.42;50.30;98999.63;6092933;23;19951;-88
2021/06/01 07:14:49;;;;;;;35.47;21.00;;;;;;;25.49;50.30;98991.34;6119608;23;20080;-87
2021/06/01 07:17:18;;;;;;;31.40;21.25;;;;;;;25.27;50.44;98990.94;6166810;23;20013;-87
2021/06/01 07:19:55;;;;;;;31.77;21.90;;;;;;;24.77;51.55;98999.19;6117930;23;20032;-86
2021/06/01 07:22:22;;;;;;;32.03;20.50;;;;;;;24.71;52.31;98997.31;6089604;23;20025;-84
2021/06/01 07:24:48;;;;;;;34.00;21.70;;;;;;;25.16;51.04;98987.09;6089563;23;20036;-84
2021/06/01 07:27:15;;;;;;;39.17;21.65;;;;;;;25.63;50.28;98995.59;6088774;23;20024;-83
2021/06/01 07:29:42;;;;;;;40.55;21.77;;;;;;;25.86;49.70;98983.13;6089521;23;20108;-84
2021/06/01 07:32:08;;;;;;;32.13;21.90;;;;;;;26.29;48.54;98988.44;6136950;23;20036;-85
2021/06/01 07:34:34;;;;;;;35.42;22.02;;;;;;;26.60;48.36;98998.34;6160275;23;20116;-88
2021/06/01 07:37:00;;;;;;;41.30;22.17;;;;;;;26.34;48.03;98980.34;6112403;23;20052;-86
2021/06/01 07:39:26;;;;;;;30.88;22.55;;;;;;;26.66;47.87;98982.84;6135789;23;20380;-87
2021/06/01 07:41:53;;;;;;;30.30;21.67;;;;;;;27.00;47.18;98975.69;6160597;23;20033;-85
2021/06/01 07:44:19;;;;;;;36.40;21.65;;;;;;;27.19;47.44;98976.44;6136667;23;20048;-85
2021/06/01 07:46:49;;;;;;;32.08;21.38;;;;;;;27.13;46.39;98977.44;6163147;23;20021;-87
2021/06/01 07:49:16;;;;;;;34.05;21.25;;;;;;;27.30;46.82;98975.59;6191085;23;20025;-87
2021/06/01 07:51:42;;;;;;;28.42;20.05;;;;;;;27.49;46.10;98975.47;6169438;23;20025;-86
2021/06/01 07:54:21;;;;;;;44.60;20.50;;;;;;;27.57;46.60;98969.63;6164807;23;20046;-89
2021/06/01 07:56:50;;;;;;;31.88;21.98;;;;;;;27.58;45.61;98958.38;6124890;23;20100;-87
2021/06/01 07:59:16;;;;;;;29.58;20.73;;;;;;;27.61;45.80;98968.06;6162879;23;20021;-86
2021/06/01 08:01:43;;;;;;;34.92;21.75;;;;;;;27.84;45.74;98975.41;6135981;23;20020;-84
2021/06/01 08:04:12;;;;;;;27.30;20.98;;;;;;;27.98;45.62;98975.94;6161031;23;20048;-89
2021/06/01 08:06:38;;;;;;;27.42;19.42;;;;;;;28.15;44.91;98957.59;6111054;23;20036;-85
2021/06/01 08:09:05;;;;;;;27.08;20.92;;;;;;;28.36;44.33;98963.44;6157800;23;20346;-85
2021/06/01 08:11:33;;;;;;;30.23;20.88;;;;;;;28.58;44.27;98967.19;6085085;23;20021;-84
2021/06/01 08:13:59;;;;;;;30.10;20.27;;;;;;;28.72;44.12;98957.53;6134803;23;20344;-86
2021/06/01 08:16:32;;;;;;;31.38;21.92;;;;;;;28.86;43.05;98958.03;6135813;23;20052;-89
2021/06/01 08:19:14;;;;;;;33.33;20.80;;;;;;;28.62;43.72;98960.09;6114700;23;20453;-86
2021/06/01 08:24:17;;;;;;;29.73;19.30;;;;;;;28.63;43.65;98947.19;6161849;23;20016;-88
2021/06/01 08:26:42;;;;;;;31.55;19.33;;;;;;;29.01;44.21;98947.28;6110196;23;20117;-86
2021/06/01 08:29:09;;;;;;;34.60;18.55;;;;;;;29.69;42.78;98949.88;6186810;23;20420;-86
2021/06/01 08:31:35;;;;;;;27.88;18.70;;;;;;;29.93;41.44;98951.25;6185681;23;20025;-85
2021/06/01 08:34:01;;;;;;;27.98;18.02;;;;;;;29.91;41.28;98947.09;6136058;23;20167;-86
2021/06/01 08:36:28;;;;;;;27.48;18.08;;;;;;;29.44;41.84;98959.44;6114311;23;20029;-85
2021/06/01 08:38:54;;;;;;;29.10;19.30;;;;;;;29.40;42.34;98951.94;6166468;23;20147;-86
2021/06/01 08:41:20;;;;;;;28.50;18.00;;;;;;;29.40;42.54;98951.94;6185707;23;20464;-87
2021/06/01 08:43:50;;;;;;;24.02;18.98;;;;;;;29.14;42.32;98954.34;6185109;23;20067;-85
2021/06/01 08:46:16;;;;;;;27.42;17.77;;;;;;;29.18;42.90;98944.47;6159768;23;20330;-87
2021/06/01 08:48:45;;;;;;;22.55;17.48;;;;;;;29.31;42.41;98934.22;6112025;23;20425;-86
2021/06/01 08:51:11;;;;;;;32.28;17.35;;;;;;;29.87;42.23;98952.31;6134553;23;20075;-86
2021/06/01 08:53:37;;;;;;;28.45;17.52;;;;;;;30.27;40.96;98939.22;6159874;23;20021;-86
2021/06/01 08:56:03;;;;;;;24.27;18.13;;;;;;;30.17;40.63;98951.00;6111368;23;20027;-84
2021/06/01 08:58:30;;;;;;;32.65;18.15;;;;;;;30.29;40.56;98937.06;6160219;23;20516;-86
2021/06/01 09:00:56;;;;;;;34.10;18.67;;;;;;;30.53;40.48;98938.34;6135648;23;20338;-87
2021/06/01 09:03:23;;;;;;;33.30;18.70;;;;;;;31.11;40.45;98941.31;6110592;23;20395;-84
2021/06/01 09:06:14;;;;;;;30.42;19.33;;;;;;;31.63;38.96;98946.88;6135222;23;20445;-86
2021/06/01 09:22:31;;;;;;;30.08;19.23;;;;;;;32.39;37.30;98931.59;6165103;23;20028;-84
2021/06/01 09:25:08;;;;;;;25.50;18.38;;;;;;;32.34;36.58;98926.03;6136349;23;20531;-85
2021/06/01 09:27:54;;;;;;;25.60;18.33;;;;;;;32.64;36.45;98923.31;6107216;23;20041;-85
2021/06/01 09:30:42;;;;;;;23.33;17.02;;;;;;;32.25;36.69;98925.75;6112187;23;20013;-84
2021/06/01 09:33:29;;;;;;;25.08;16.65;;;;;;;32.51;36.89;98915.56;6187494;23;20025;-85
2021/06/01 09:35:59;;;;;;;26.05;16.80;;;;;;;33.01;36.13;98924.94;6142908;23;20053;-85
2021/06/01 09:38:30;;;;;;;34.40;17.50;;;;;;;32.88;35.90;98922.75;6194724;23;20028;-83
2021/06/01 09:41:06;;;;;;;21.45;17.33;;;;;;;31.71;37.30;98919.78;6169962;23;20045;-84
2021/06/01 09:43:51;;;;;;;25.63;17.25;;;;;;;31.47;38.59;98919.44;6163281;23;20028;-85
2021/06/01 09:46:33;;;;;;;21.85;17.95;;;;;;;31.87;38.12;98924.31;6165901;23;20377;-84
2021/06/01 09:49:12;;;;;;;26.65;18.67;;;;;;;32.15;37.60;98921.03;6191303;23;20028;-85
2021/06/01 09:51:39;;;;;;;29.90;18.50;;;;;;;32.35;37.20;98913.88;6192424;23;20025;-86
2021/06/01 09:54:27;;;;;;;23.58;17.55;;;;;;;32.53;36.61;98920.81;6118449;23;20024;-87
2021/06/01 09:56:53;;;;;;;21.88;17.60;;;;;;;32.24;37.06;98906.69;6165406;23;20023;-84
2021/06/01 09:59:23;;;;;;;34.22;18.42;;;;;;;32.00;37.49;98918.25;6189080;23;20021;-86
2021/06/01 10:01:49;;;;;;;29.80;21.27;;;;;;;31.66;37.86;98907.63;6162640;23;20017;-84
2021/06/01 10:04:26;;;;;;;27.65;20.35;;;;;;;32.01;37.44;98919.91;6136652;23;20062;-85
2021/06/01 10:06:52;;;;;;;30.63;23.13;;;;;;;31.45;38.04;98914.19;6160890;23;20029;-85
2021/06/01 10:09:28;;;;;;;26.02;23.02;;;;;;;31.39;38.39;98923.53;6138474;23;20356;-86
2021/06/01 10:11:58;;;;;;;28.20;23.88;;;;;;;31.19;38.11;98908.50;6165451;23;20052;-86
2021/06/01 10:14:30;;;;;;;28.35;24.40;;;;;;;31.24;38.34;98920.66;6137771;23;20060;-85
2021/06/01 10:16:57;;;;;;;40.35;23.88;;;;;;;31.11;39.28;98922.81;6162253;23;20036;-85
2021/06/01 10:19:23;;;;;;;48.80;25.17;;;;;;;30.92;39.74;98918.84;6137689;23;20112;-88
2021/06/01 10:21:53;;;;;;;57.40;25.27;;;;;;;29.84;42.15;98924.44;6161390;23;20021;-85
2021/06/01 10:24:20;;;;;;;48.83;27.30;;;;;;;28.87;44.02;98915.66;6185757;23;20021;-85
2021/06/01 10:26:45;;;;;;;55.05;26.85;;;;;;;28.28;45.23;98913.34;6186623;23;20021;-84
2021/06/01 10:29:12;;;;;;;53.63;28.77;;;;;;;28.07;45.90;98903.06;6187058;23;20021;-83
2021/06/01 10:31:38;;;;;;;57.22;28.27;;;;;;;28.37;45.47;98904.66;6138624;23;20032;-84
2021/06/01 10:34:09;;;;;;;55.38;28.73;;;;;;;28.54;45.35;98902.75;6088115;23;20056;-86
2021/06/01 10:50:35;;;;;;;55.47;26.08;;;;;;;31.57;40.41;98906.50;6164193;23;20021;-85
2021/06/01 10:53:36;;;;;;;57.60;25.17;;;;;;;32.76;38.85;98895.34;6160965;23;20017;-84
2021/06/01 10:56:04;;;;;;;42.53;23.33;;;;;;;32.24;38.06;98892.84;6184075;23;20025;-85
2021/06/01 10:58:38;;;;;;;39.90;23.13;;;;;;;31.88;38.71;98898.31;6186864;23;20108;-84
2021/06/01 11:04:16;;;;;;;37.90;21.38;;;;;;;31.15;39.58;98896.34;6186468;23;20068;-84
2021/06/01 11:07:40;;;;;;;52.65;21.38;;;;;;;31.76;38.94;98895.78;6186527;23;20532;-84
2021/06/01 11:09:37;;;;;;;39.50;19.90;;;;;;;32.30;38.18;98888.97;6175169;23;20404;-83
2021/06/01 11:12:13;;;;;;;42.38;19.98;;;;;;;32.62;37.38;98897.84;6159994;23;20027;-84
2021/06/01 11:14:39;;;;;;;29.38;18.02;;;;;;;33.13;36.94;98883.94;6186333;23;20037;-85
2021/06/01 11:17:05;;;;;;;27.55;16.95;;;;;;;33.83;35.91;98888.66;6160254;23;20033;-85
2021/06/01 11:19:52;;;;;;;32.97;17.13;;;;;;;33.48;36.01;98889.69;6184310;23;20021;-84
2021/06/01 11:22:23;;;;;;;34.30;18.33;;;;;;;33.38;36.57;98892.44;6137524;23;20044;-84
2021/06/01 11:28:56;;;;;;;33.60;18.85;;;;;;;33.13;36.93;98886.69;6159897;23;20021;-84
2021/06/01 11:33:33;;;;;;;41.28;20.55;;;;;;;35.47;32.61;98874.97;6184080;23;20408;-85
2021/06/01 11:36:03;;;;;;;46.10;19.38;;;;;;;34.96;33.34;98883.88;6185737;23;20036;-83
2021/06/01 11:38:58;;;;;;;42.55;18.13;;;;;;;34.30;34.27;98877.00;6159428;23;20457;-83
2021/06/01 11:43:53;;;;;;;34.88;16.30;;;;;;;32.77;35.92;98885.13;6158006;23;20017;-85
2021/06/01 11:51:25;;;;;;;24.23;15.05;;;;;;;32.05;37.97;98882.31;6111648;23;20479;-85
2021/06/01 11:53:57;;;;;;;26.98;13.85;;;;;;;32.39;38.06;98881.78;6135504;23;20097;-83
2021/06/01 12:20:51;;;;;;;20.42;15.57;;;;;;;30.69;40.18;98860.16;6190465;23;20144;-85
2021/06/01 12:23:37;;;;;;;21.35;15.05;;;;;;;30.24;41.07;98853.19;6135444;23;20079;-82
2021/06/01 12:32:08;;;;;;;21.55;15.13;;;;;;;31.32;38.87;98845.63;6184989;23;20017;-83
2021/06/01 12:43:21;;;;;;;38.15;19.20;;;;;;;31.69;39.13;98829.72;6166076;23;20041;-84
2021/06/01 12:46:01;;;;;;;39.97;16.42;;;;;;;33.80;36.53;98836.53;6167712;23;20068;-84
2021/06/01 13:14:26;;;;;;;29.02;12.35;;;;;;;31.83;38.26;98840.25;6186204;23;20031;-82
2021/06/01 13:40:03;;;;;;;23.40;12.05;;;;;;;29.39;42.68;98812.63;6188248;23;20025;-84
2021/06/01 13:50:35;;;;;;;27.95;13.82;;;;;;;28.36;45.24;98809.53;6186428;23;20017;-83
2021/06/01 13:55:05;;;;;;;25.52;15.23;;;;;;;28.30;45.75;98819.63;6162922;23;20019;-85
2021/06/01 13:56:03;;;;;;;22.45;14.48;;;;;;;28.36;45.98;98804.03;6144622;23;20025;-86
2021/06/01 13:58:56;;;;;;;32.42;14.15;;;;;;;28.63;45.44;98793.19;6140101;23;20513;-85
2021/06/01 14:01:34;;;;;;;24.92;15.20;;;;;;;28.87;45.44;98802.88;6147748;23;20021;-84
2021/06/01 14:09:51;;;;;;;29.00;14.55;;;;;;;28.97;45.21;98815.94;6185413;23;20188;-86
2021/06/01 14:20:50;;;;;;;20.88;13.07;;;;;;;29.02;44.73;98819.59;6164270;23;20116;-85
2021/06/01 14:31:38;;;;;;;16.55;11.35;;;;;;;28.70;44.68;98794.69;6134831;23;20029;-83